createdAt,value
2017-10-14T00:01:07.412Z,17.60
2017-10-14T00:03:34.055Z,20.17
2017-10-14T00:06:00.736Z,18.97
2017-10-14T00:08:27.415Z,18.43
2017-10-14T00:10:54.073Z,19.37
2017-10-14T00:13:20.735Z,20.00
2017-10-14T00:15:47.401Z,19.63
2017-10-14T00:18:14.048Z,22.97
2017-10-14T00:20:40.741Z,18.10
2017-10-14T00:23:07.415Z,18.83
2017-10-14T00:25:34.069Z,17.57
2017-10-14T00:28:00.746Z,19.87
2017-10-14T00:30:27.502Z,23.07
2017-10-14T00:32:54.187Z,20.70
2017-10-14T00:35:20.864Z,21.77
2017-10-14T00:37:47.521Z,19.33
2017-10-14T00:40:14.214Z,21.70
2017-10-14T00:42:40.861Z,18.27
2017-10-14T00:45:07.509Z,21.37
2017-10-14T00:47:34.176Z,19.90
2017-10-14T00:50:00.858Z,20.70
2017-10-14T00:52:27.535Z,20.60
2017-10-14T00:54:54.197Z,20.80
2017-10-14T00:57:20.851Z,16.70
2017-10-14T00:59:47.536Z,16.70
2017-10-14T01:02:14.218Z,16.90
2017-10-14T01:04:40.868Z,18.10
2017-10-14T01:07:07.576Z,20.37
2017-10-14T01:09:34.234Z,20.47
2017-10-14T01:12:00.880Z,20.80
2017-10-14T01:14:27.548Z,17.23
2017-10-14T01:16:54.201Z,17.90
2017-10-14T01:19:20.848Z,18.37
2017-10-14T01:21:47.529Z,15.63
2017-10-14T01:24:14.223Z,18.90
2017-10-14T01:26:40.875Z,20.37
2017-10-14T01:29:07.553Z,18.97
2017-10-14T01:31:34.220Z,21.40
2017-10-14T01:34:00.874Z,20.97
2017-10-14T01:36:27.859Z,19.70
2017-10-14T01:38:54.532Z,17.77
2017-10-14T01:41:21.219Z,17.00
2017-10-14T01:43:47.881Z,16.17
2017-10-14T01:46:14.550Z,17.67
2017-10-14T01:48:41.230Z,20.80
2017-10-14T01:51:07.888Z,21.17
2017-10-14T01:53:34.579Z,19.47
2017-10-14T01:56:01.229Z,20.77
2017-10-14T01:58:27.882Z,26.60
2017-10-14T02:00:54.564Z,21.70
2017-10-14T02:03:21.207Z,21.50
2017-10-14T02:05:47.855Z,22.53
2017-10-14T02:08:14.543Z,24.10
2017-10-14T02:10:41.198Z,24.90
2017-10-14T02:13:07.877Z,22.50
2017-10-14T02:15:34.529Z,22.47
2017-10-14T02:18:01.226Z,24.57
2017-10-14T02:20:27.877Z,27.47
2017-10-14T02:22:54.536Z,21.40
2017-10-14T02:25:21.357Z,23.03
2017-10-14T02:27:48.019Z,21.20
2017-10-14T02:30:14.698Z,20.97
2017-10-14T02:32:41.364Z,20.33
2017-10-14T02:35:08.020Z,22.30
2017-10-14T02:37:34.695Z,21.27
2017-10-14T02:40:01.344Z,22.17
2017-10-14T02:42:28.025Z,22.73
2017-10-14T02:44:54.673Z,24.90
2017-10-14T02:47:21.344Z,26.57
2017-10-14T02:49:48.017Z,23.13
2017-10-14T02:52:14.669Z,21.73
2017-10-14T02:54:41.343Z,21.40
2017-10-14T02:57:07.995Z,24.30
2017-10-14T02:59:34.702Z,20.20
2017-10-14T03:02:01.360Z,21.67
2017-10-14T03:04:28.017Z,21.63
2017-10-14T03:06:54.699Z,21.80
2017-10-14T03:09:21.349Z,23.03
2017-10-14T03:11:48.014Z,23.80
2017-10-14T03:14:14.668Z,21.70
2017-10-14T03:16:41.323Z,22.83
2017-10-14T03:19:07.992Z,23.57
2017-10-14T03:21:34.636Z,20.83
2017-10-14T03:24:01.291Z,25.97
2017-10-14T03:26:28.086Z,23.17
2017-10-14T03:28:54.736Z,19.97
2017-10-14T03:31:21.385Z,17.47
2017-10-14T03:33:48.056Z,17.40
2017-10-14T03:36:14.701Z,19.50
2017-10-14T03:38:41.386Z,19.53
2017-10-14T03:41:08.241Z,18.20
2017-10-14T03:43:34.919Z,17.33
2017-10-14T03:46:01.593Z,18.53
2017-10-14T03:48:28.277Z,17.20
2017-10-14T03:50:54.927Z,18.57
2017-10-14T03:53:21.572Z,18.67
2017-10-14T03:55:48.250Z,20.70
2017-10-14T03:58:14.944Z,126.77
2017-10-14T04:00:41.589Z,50.13
2017-10-14T04:03:08.259Z,66.73
2017-10-14T04:05:34.936Z,36.40
2017-10-14T04:08:01.593Z,32.50
2017-10-14T04:10:28.268Z,30.30
2017-10-14T04:12:54.948Z,57.33
2017-10-14T04:15:21.604Z,26.27
2017-10-14T04:17:48.261Z,21.70
2017-10-14T04:20:14.939Z,21.30
2017-10-14T04:22:41.598Z,22.83
2017-10-14T04:25:08.279Z,23.70
2017-10-14T04:27:34.925Z,24.80
2017-10-14T04:30:01.615Z,19.87
2017-10-14T04:32:28.259Z,20.00
2017-10-14T04:34:54.908Z,21.33
2017-10-14T04:37:21.695Z,20.67
2017-10-14T04:39:48.340Z,19.80
2017-10-14T04:42:15.035Z,20.33
2017-10-14T04:44:41.716Z,21.03
2017-10-14T04:47:08.398Z,19.30
2017-10-14T04:49:35.047Z,20.57
2017-10-14T04:52:01.702Z,20.53
2017-10-14T04:54:28.381Z,21.40
2017-10-14T04:56:55.028Z,25.07
2017-10-14T04:59:21.715Z,23.07
2017-10-14T05:01:48.365Z,21.07
2017-10-14T05:04:15.074Z,18.27
2017-10-14T05:13:24.435Z,19.67
2017-10-14T05:15:51.080Z,18.07
2017-10-14T05:18:18.126Z,22.07
2017-10-14T05:20:44.811Z,23.00
2017-10-14T05:23:11.488Z,20.37
2017-10-14T05:25:38.160Z,20.20
2017-10-14T05:28:04.811Z,20.43
2017-10-14T05:30:31.486Z,20.00
2017-10-14T05:32:58.236Z,20.73
2017-10-14T05:35:24.888Z,20.47
2017-10-14T05:37:51.559Z,19.90
2017-10-14T05:40:18.207Z,18.40
2017-10-14T05:42:44.888Z,19.97
2017-10-14T05:45:11.541Z,30.17
2017-10-14T05:47:38.199Z,30.27
2017-10-14T05:50:04.884Z,20.57
2017-10-14T05:52:31.562Z,22.47
2017-10-14T05:54:58.217Z,21.60
2017-10-14T05:57:24.913Z,22.23
2017-10-14T05:59:51.560Z,27.43
2017-10-14T06:02:18.233Z,21.00
2017-10-14T06:04:44.889Z,21.27
2017-10-14T06:07:11.568Z,43.10
2017-10-14T06:09:38.212Z,26.20
2017-10-14T06:12:04.885Z,19.07
2017-10-14T06:14:31.528Z,21.73
2017-10-14T06:16:58.180Z,22.40
2017-10-14T06:19:24.861Z,23.63
2017-10-14T06:21:51.795Z,26.53
2017-10-14T06:24:18.504Z,24.60
2017-10-14T06:26:45.164Z,26.50
2017-10-14T06:35:54.411Z,37.20
2017-10-14T06:38:21.126Z,32.40
2017-10-14T06:40:47.794Z,28.47
2017-10-14T06:43:14.457Z,28.90
2017-10-14T06:45:41.141Z,24.50
2017-10-14T06:48:07.812Z,23.90
2017-10-14T06:50:34.469Z,22.03
2017-10-14T06:53:01.141Z,22.30
2017-10-14T06:55:27.810Z,23.53
2017-10-14T06:57:54.466Z,24.97
2017-10-14T07:00:21.146Z,22.00
2017-10-14T07:02:47.824Z,23.77
2017-10-14T07:05:14.475Z,36.93
2017-10-14T07:07:41.116Z,36.20
2017-10-14T07:10:07.789Z,23.43
2017-10-14T07:12:34.444Z,21.77
2017-10-14T07:15:01.130Z,20.40
2017-10-14T07:17:27.781Z,21.97
2017-10-14T07:19:54.429Z,20.90
2017-10-14T07:22:21.110Z,27.57
2017-10-14T07:24:47.764Z,33.37
2017-10-14T07:27:14.462Z,46.57
2017-10-14T07:29:41.202Z,52.13
2017-10-14T07:32:07.897Z,59.30
2017-10-14T07:34:34.570Z,58.83
2017-10-14T07:37:01.233Z,65.70
2017-10-14T07:39:27.906Z,63.90
2017-10-14T07:41:54.588Z,61.37
2017-10-14T07:44:21.292Z,64.03
2017-10-14T07:46:47.966Z,62.70
2017-10-14T07:49:14.626Z,61.17
2017-10-14T07:51:41.308Z,58.23
2017-10-14T07:54:07.963Z,60.67
2017-10-14T07:56:34.652Z,65.10
2017-10-14T07:59:01.391Z,61.87
2017-10-14T08:01:28.056Z,66.23
2017-10-14T08:03:54.709Z,74.80
2017-10-14T08:06:21.400Z,70.70
2017-10-14T08:08:48.062Z,74.30
2017-10-14T08:11:14.728Z,73.57
2017-10-14T08:13:41.396Z,76.70
2017-10-14T08:16:08.061Z,75.47
2017-10-14T08:18:34.735Z,63.43
2017-10-14T08:21:01.403Z,60.27
2017-10-14T08:23:28.081Z,59.10
2017-10-14T08:25:54.772Z,58.30
2017-10-14T08:28:21.424Z,59.07
2017-10-14T08:30:48.079Z,57.00
2017-10-14T08:33:14.751Z,61.50
2017-10-14T08:35:41.413Z,65.00
2017-10-14T08:38:08.097Z,64.03
2017-10-14T08:40:34.792Z,64.00
2017-10-14T08:43:01.452Z,57.53
2017-10-14T08:45:28.140Z,60.60
2017-10-14T08:47:54.800Z,59.43
2017-10-14T08:50:21.462Z,62.67
2017-10-14T08:52:48.157Z,62.80
2017-10-14T08:55:14.827Z,64.00
2017-10-14T08:57:41.481Z,61.50
2017-10-14T09:00:08.151Z,55.57
2017-10-14T09:02:34.804Z,61.90
2017-10-14T09:05:01.467Z,57.57
2017-10-14T09:07:28.153Z,64.47
2017-10-14T09:09:54.807Z,57.57
2017-10-14T09:12:21.491Z,60.80
2017-10-14T09:14:48.173Z,57.33
2017-10-14T09:17:14.832Z,57.17
2017-10-14T09:19:41.513Z,61.63
2017-10-14T09:22:08.179Z,64.80
2017-10-14T09:24:34.840Z,62.30
2017-10-14T09:27:01.526Z,62.93
2017-10-14T09:29:28.188Z,60.83
2017-10-14T09:31:54.864Z,51.53
2017-10-14T09:34:21.537Z,54.47
2017-10-14T09:36:48.188Z,46.63
2017-10-14T09:39:14.890Z,48.27
2017-10-14T09:41:41.548Z,42.50
2017-10-14T09:44:08.187Z,42.47
2017-10-14T09:46:34.861Z,40.60
2017-10-14T09:49:01.513Z,40.10
2017-10-14T09:51:28.190Z,41.07
2017-10-14T09:53:54.842Z,39.20
2017-10-14T09:56:21.489Z,37.37
2017-10-14T09:58:48.157Z,32.80
2017-10-14T10:01:14.820Z,31.80
2017-10-14T10:03:41.496Z,32.87
2017-10-14T10:06:08.184Z,33.07
2017-10-14T10:08:34.831Z,34.33
2017-10-14T10:11:01.480Z,31.13
2017-10-14T10:13:28.158Z,29.77
2017-10-14T10:15:54.825Z,30.90
2017-10-14T10:18:21.508Z,28.83
2017-10-14T10:20:48.201Z,28.83
2017-10-14T10:23:14.885Z,27.40
2017-10-14T10:25:41.539Z,28.00
2017-10-14T10:28:08.209Z,24.93
2017-10-14T10:30:34.880Z,24.93
2017-10-14T10:33:01.551Z,20.90
2017-10-14T10:35:28.220Z,24.80
2017-10-14T10:37:54.901Z,25.57
2017-10-14T10:40:21.568Z,22.13
2017-10-14T10:42:48.244Z,22.93
2017-10-14T10:45:14.894Z,21.27
2017-10-14T10:47:41.541Z,21.50
2017-10-14T10:50:08.212Z,19.60
2017-10-14T10:52:34.865Z,20.90
2017-10-14T10:55:01.539Z,18.50
2017-10-14T10:57:28.205Z,18.37
2017-10-14T10:59:54.892Z,20.77
2017-10-14T11:02:21.543Z,20.30
2017-10-14T11:04:48.204Z,18.00
2017-10-14T11:07:14.869Z,15.90
2017-10-14T11:09:41.516Z,16.60
2017-10-14T11:12:08.186Z,14.27
2017-10-14T11:14:34.836Z,16.13
2017-10-14T11:17:01.516Z,14.43
2017-10-14T11:19:28.163Z,14.90
2017-10-14T11:21:54.840Z,14.90
2017-10-14T11:24:21.507Z,15.60
2017-10-14T11:26:48.175Z,14.00
2017-10-14T11:29:14.826Z,11.40
2017-10-14T11:31:41.508Z,10.50
2017-10-14T11:34:08.172Z,11.80
2017-10-14T11:36:34.828Z,10.50
2017-10-14T11:39:01.505Z,9.80
2017-10-14T11:41:28.144Z,8.90
2017-10-14T11:43:54.788Z,8.30
2017-10-14T11:46:21.451Z,7.60
2017-10-14T11:48:48.121Z,9.10
2017-10-14T11:51:14.795Z,9.37
2017-10-14T11:53:41.451Z,8.70
2017-10-14T11:56:08.195Z,8.40
2017-10-14T11:58:34.871Z,10.03
2017-10-14T12:01:01.515Z,6.53
2017-10-14T12:03:28.200Z,5.50
2017-10-14T12:05:54.844Z,6.03
2017-10-14T12:08:21.479Z,5.73
2017-10-14T12:10:48.141Z,6.77
2017-10-14T12:13:14.786Z,5.20
2017-10-14T12:15:41.429Z,5.07
2017-10-14T12:18:08.101Z,5.30
2017-10-14T12:20:34.766Z,4.83
2017-10-14T12:23:01.444Z,4.97
2017-10-14T12:25:28.190Z,5.80
2017-10-14T12:27:54.860Z,4.30
2017-10-14T12:30:21.507Z,7.10
2017-10-14T12:32:48.186Z,4.37
2017-10-14T12:35:14.838Z,4.43
2017-10-14T12:37:41.503Z,3.47
2017-10-14T12:40:08.140Z,3.03
2017-10-14T12:42:34.784Z,2.57
2017-10-14T12:45:01.460Z,3.37
2017-10-14T12:47:28.101Z,3.00
2017-10-14T12:49:54.745Z,3.20
2017-10-14T12:52:21.421Z,3.80
2017-10-14T12:54:48.089Z,3.60
2017-10-14T12:57:14.730Z,2.63
2017-10-14T12:59:41.368Z,2.87
2017-10-14T13:02:08.032Z,1.93
2017-10-14T13:04:34.692Z,2.87
2017-10-14T13:07:01.495Z,2.30
2017-10-14T13:09:28.133Z,2.30
2017-10-14T13:11:54.776Z,2.30
2017-10-14T13:14:21.445Z,2.80
2017-10-14T13:16:48.085Z,2.57
2017-10-14T13:19:14.756Z,3.17
2017-10-14T13:21:41.438Z,2.40
2017-10-14T13:24:08.081Z,2.70
2017-10-14T13:26:34.720Z,2.33
2017-10-14T13:29:01.392Z,2.40
2017-10-14T13:31:28.036Z,2.03
2017-10-14T13:33:54.687Z,2.80
2017-10-14T13:36:21.357Z,3.70
2017-10-14T13:38:48.021Z,2.10
2017-10-14T13:41:14.664Z,2.30
2017-10-14T13:43:41.315Z,2.63
2017-10-14T13:46:08.258Z,2.50
2017-10-14T13:48:34.921Z,2.50
2017-10-14T13:51:01.589Z,1.93
2017-10-14T13:53:28.235Z,2.83
2017-10-14T13:55:54.876Z,2.47
2017-10-14T13:58:21.545Z,2.40
2017-10-14T14:00:48.210Z,2.70
2017-10-14T14:03:14.859Z,3.63
2017-10-14T14:05:41.521Z,2.00
2017-10-14T14:08:08.174Z,3.10
2017-10-14T14:10:34.845Z,2.70
2017-10-14T14:13:01.492Z,2.80
2017-10-14T14:15:28.156Z,3.20
2017-10-14T14:17:54.796Z,2.50
2017-10-14T14:20:21.468Z,3.47
2017-10-14T14:22:48.132Z,3.00
2017-10-14T14:25:14.799Z,3.83
2017-10-14T14:27:41.477Z,3.60
2017-10-14T14:30:08.140Z,3.60
2017-10-14T14:32:34.810Z,2.80
2017-10-14T14:35:01.460Z,4.40
2017-10-14T14:37:28.123Z,3.57
2017-10-14T14:39:54.764Z,4.27
2017-10-14T14:42:21.428Z,5.23
2017-10-14T14:44:48.111Z,3.70
2017-10-14T14:47:14.788Z,4.30
2017-10-14T14:49:41.428Z,5.80
2017-10-14T14:52:08.077Z,5.20
2017-10-14T14:54:34.741Z,5.13
2017-10-14T14:57:01.413Z,5.43
2017-10-14T14:59:28.991Z,5.30
2017-10-14T15:01:55.653Z,5.30
2017-10-14T15:04:22.299Z,4.30
2017-10-14T15:06:48.976Z,6.37
2017-10-14T15:09:15.653Z,6.77
2017-10-14T15:11:42.316Z,6.20
2017-10-14T15:14:08.960Z,6.47
2017-10-14T15:16:35.604Z,6.90
2017-10-14T15:19:02.297Z,6.63
2017-10-14T15:21:28.954Z,6.63
2017-10-14T15:23:55.930Z,6.43
2017-10-14T15:26:22.572Z,6.80
2017-10-14T15:28:49.225Z,7.47
2017-10-14T15:31:15.896Z,6.23
2017-10-14T15:33:42.547Z,6.10
2017-10-14T15:36:09.196Z,6.63
2017-10-14T15:38:35.863Z,6.97
2017-10-14T15:41:02.532Z,6.10
2017-10-14T15:43:29.201Z,6.10
2017-10-14T15:45:55.839Z,5.80
2017-10-14T15:48:22.480Z,6.37
2017-10-14T15:50:49.174Z,7.83
2017-10-14T15:53:15.927Z,5.53
2017-10-14T15:55:42.570Z,6.87
2017-10-14T15:58:09.213Z,6.07
2017-10-14T16:00:35.884Z,7.37
2017-10-14T16:03:02.600Z,6.93
2017-10-14T16:05:29.248Z,7.50
2017-10-14T16:07:55.889Z,7.40
2017-10-14T16:10:22.551Z,6.70
2017-10-14T16:15:33.047Z,8.23
2017-10-14T16:17:59.693Z,10.20
2017-10-14T16:20:26.367Z,14.60
2017-10-14T16:22:53.032Z,13.87
2017-10-14T16:25:19.688Z,13.47
2017-10-14T16:27:46.355Z,16.17
2017-10-14T16:30:13.036Z,12.60
2017-10-14T16:32:39.688Z,10.40
2017-10-14T16:35:06.373Z,10.20
2017-10-14T16:37:33.015Z,9.17
2017-10-14T16:39:59.656Z,8.07
2017-10-14T16:42:26.336Z,9.33
2017-10-14T16:44:52.990Z,7.83
2017-10-14T16:47:19.740Z,7.60
2017-10-14T16:49:46.423Z,8.27
2017-10-14T16:52:13.096Z,7.60
2017-10-14T16:54:39.776Z,8.10
2017-10-14T16:57:06.452Z,17.20
2017-10-14T16:59:33.127Z,16.90
2017-10-14T17:01:59.781Z,11.20
2017-10-14T17:04:26.657Z,12.47
2017-10-14T17:06:53.580Z,10.30
2017-10-14T17:09:20.226Z,32.43
2017-10-14T17:11:46.904Z,15.30
2017-10-14T17:14:13.584Z,14.80
2017-10-14T17:16:40.295Z,13.13
2017-10-14T17:19:06.943Z,11.50
2017-10-14T17:21:33.608Z,9.90
2017-10-14T17:24:00.256Z,11.20
2017-10-14T17:26:26.924Z,11.43
2017-10-14T17:28:53.580Z,10.67
2017-10-14T17:31:20.226Z,11.37
2017-10-14T17:33:46.917Z,11.40
2017-10-14T17:36:13.572Z,12.07
2017-10-14T17:38:40.236Z,10.73
2017-10-14T17:41:06.932Z,13.83
2017-10-14T17:43:33.806Z,85.87
2017-10-14T17:46:00.514Z,39.73
2017-10-14T17:48:27.173Z,13.60
2017-10-14T17:50:53.866Z,12.50
2017-10-14T17:53:20.516Z,13.07
2017-10-14T17:55:47.217Z,13.87
2017-10-14T17:58:13.860Z,12.83
2017-10-14T18:00:40.509Z,13.40
2017-10-14T18:03:07.197Z,29.17
2017-10-14T18:05:33.844Z,34.27
2017-10-14T18:08:00.501Z,24.90
2017-10-14T18:10:27.184Z,34.47
2017-10-14T18:12:53.857Z,26.93
2017-10-14T18:15:20.530Z,22.60
2017-10-14T18:17:47.200Z,13.07
2017-10-14T18:20:13.884Z,12.73
2017-10-14T18:22:40.554Z,13.10
2017-10-14T18:25:07.239Z,14.07
2017-10-14T18:27:33.917Z,15.93
2017-10-14T18:30:00.600Z,15.07
2017-10-14T18:32:27.245Z,16.70
2017-10-14T18:34:53.930Z,18.97
2017-10-14T18:37:20.619Z,21.00
2017-10-14T18:39:47.294Z,21.13
2017-10-14T18:42:13.965Z,18.67
2017-10-14T18:44:40.637Z,18.50
2017-10-14T18:47:07.307Z,18.23
2017-10-14T18:49:33.982Z,18.30
2017-10-14T18:52:00.661Z,36.13
2017-10-14T18:54:27.312Z,22.33
2017-10-14T18:56:53.993Z,19.20
2017-10-14T18:59:20.668Z,20.17
2017-10-14T19:01:47.351Z,17.43
2017-10-14T19:04:14.040Z,19.70
2017-10-14T19:06:40.715Z,18.53
2017-10-14T19:09:07.364Z,19.77
2017-10-14T19:11:34.057Z,31.17
2017-10-14T19:14:00.708Z,23.97
2017-10-14T19:16:27.356Z,21.50
2017-10-14T19:18:54.019Z,20.23
2017-10-14T19:21:20.665Z,22.70
2017-10-14T19:23:47.338Z,21.03
2017-10-14T19:26:14.017Z,20.37
2017-10-14T19:28:40.693Z,18.87
2017-10-14T19:31:07.371Z,19.40
2017-10-14T19:33:34.096Z,21.17
2017-10-14T19:36:00.768Z,20.17
2017-10-14T19:38:27.421Z,20.07
2017-10-14T19:40:54.091Z,20.30
2017-10-14T19:43:20.743Z,18.23
2017-10-14T19:45:47.428Z,20.10
2017-10-14T19:48:14.119Z,19.70
2017-10-14T19:50:40.805Z,131.33
2017-10-14T19:53:07.449Z,23.43
2017-10-14T19:55:34.100Z,20.00
2017-10-14T19:58:00.779Z,21.13
2017-10-14T20:00:27.443Z,21.83
2017-10-14T20:02:54.111Z,20.47
2017-10-14T20:05:20.763Z,21.07
2017-10-14T20:07:47.434Z,20.37
2017-10-14T20:10:14.093Z,19.90
2017-10-14T20:12:40.781Z,18.60
2017-10-14T20:15:07.458Z,18.80
2017-10-14T20:17:34.128Z,24.80
2017-10-14T20:20:00.857Z,114.10
2017-10-14T20:22:27.508Z,62.00
2017-10-14T20:24:54.151Z,27.00
2017-10-14T20:27:20.851Z,23.50
2017-10-14T20:29:47.502Z,24.70
2017-10-14T20:32:14.158Z,25.93
2017-10-14T20:34:40.844Z,25.93
2017-10-14T20:37:07.523Z,27.17
2017-10-14T20:39:34.198Z,26.37
2017-10-14T20:42:00.852Z,23.60
2017-10-14T20:44:27.505Z,23.30
2017-10-14T20:46:54.173Z,22.83
2017-10-14T20:49:20.836Z,23.90
2017-10-14T20:51:47.502Z,25.47
2017-10-14T20:54:14.181Z,26.60
2017-10-14T20:56:40.853Z,24.67
2017-10-14T20:59:07.525Z,26.87
2017-10-14T21:01:34.203Z,25.53
2017-10-14T21:04:00.876Z,26.50
2017-10-14T21:06:27.524Z,29.40
2017-10-14T21:08:54.206Z,25.90
2017-10-14T21:11:20.858Z,25.10
2017-10-14T21:13:47.536Z,27.50
2017-10-14T21:16:14.203Z,26.40
2017-10-14T21:18:40.875Z,23.03
2017-10-14T21:21:07.533Z,25.70
2017-10-14T21:23:34.214Z,27.30
2017-10-14T21:26:00.868Z,25.10
2017-10-14T21:28:27.543Z,25.57
2017-10-14T21:30:54.255Z,25.90
2017-10-14T21:33:20.910Z,24.70
2017-10-14T21:35:47.579Z,28.57
2017-10-14T21:38:14.268Z,40.77
2017-10-14T21:40:40.928Z,40.70
2017-10-14T21:43:07.578Z,29.90
2017-10-14T21:45:34.253Z,36.27
2017-10-14T21:48:00.920Z,37.20
2017-10-14T21:50:27.560Z,36.23
2017-10-14T21:52:54.237Z,37.10
2017-10-14T21:55:20.889Z,33.87
2017-10-14T21:57:47.544Z,27.73
2017-10-14T22:00:14.213Z,39.37
2017-10-14T22:02:40.893Z,30.30
2017-10-14T22:05:07.569Z,25.40
2017-10-14T22:07:34.262Z,36.33
2017-10-14T22:10:01.131Z,72.03
2017-10-14T22:12:27.784Z,41.23
2017-10-14T22:14:54.456Z,37.60
2017-10-14T22:17:21.128Z,33.17
2017-10-14T22:19:47.779Z,42.30
2017-10-14T22:22:14.428Z,42.20
2017-10-14T22:24:41.113Z,37.70
2017-10-14T22:27:07.766Z,35.60
2017-10-14T22:29:34.440Z,33.00
2017-10-14T22:32:01.086Z,33.47
2017-10-14T22:34:27.756Z,33.57
2017-10-14T22:36:54.427Z,32.00
2017-10-14T22:39:21.076Z,32.00
2017-10-14T22:41:47.757Z,32.70
2017-10-14T22:44:14.421Z,33.80
2017-10-14T22:46:41.104Z,33.20
2017-10-14T22:49:07.763Z,32.40
2017-10-14T22:51:34.524Z,32.73
2017-10-14T22:54:01.195Z,33.53
2017-10-14T22:56:27.852Z,33.03
2017-10-14T22:58:54.530Z,35.60
2017-10-14T23:01:21.187Z,36.60
2017-10-14T23:03:47.884Z,35.40
2017-10-14T23:06:14.610Z,59.00
2017-10-14T23:08:41.277Z,51.07
2017-10-14T23:11:07.988Z,81.10
2017-10-14T23:13:34.635Z,76.57
2017-10-14T23:16:01.284Z,64.67
2017-10-14T23:18:27.952Z,50.40
2017-10-14T23:20:54.600Z,45.90
2017-10-14T23:23:21.311Z,44.37
2017-10-14T23:25:47.968Z,48.23
2017-10-14T23:28:14.625Z,46.20
2017-10-14T23:30:41.299Z,45.13
2017-10-14T23:33:07.976Z,43.37
2017-10-14T23:35:34.645Z,40.20
2017-10-14T23:38:01.297Z,41.03
2017-10-14T23:40:28.016Z,36.47
2017-10-14T23:42:54.664Z,37.87
2017-10-14T23:45:21.315Z,41.20
2017-10-14T23:47:47.989Z,43.20
2017-10-14T23:50:14.646Z,35.13
2017-10-14T23:52:41.320Z,43.30
2017-10-14T23:55:07.971Z,35.60
2017-10-14T23:57:34.656Z,36.87
